createdAt,value
2023-03-02T00:01:39.468Z,11.03
2023-03-02T00:04:08.664Z,9.93
2023-03-02T00:06:37.392Z,10.53
2023-03-02T00:09:06.305Z,9.57
2023-03-02T00:11:35.732Z,9.37
2023-03-02T00:14:02.851Z,10.50
2023-03-02T00:16:29.731Z,10.07
2023-03-02T00:18:56.955Z,10.27
2023-03-02T00:21:24.801Z,10.27
2023-03-02T00:23:52.595Z,10.10
2023-03-02T00:26:20.331Z,9.97
2023-03-02T00:28:47.165Z,11.47
2023-03-02T00:31:14.254Z,10.47
2023-03-02T00:33:41.098Z,10.27
2023-03-02T00:36:16.881Z,10.63
2023-03-02T00:38:44.223Z,9.93
2023-03-02T00:41:12.518Z,9.67
2023-03-02T00:43:40.049Z,10.53
2023-03-02T00:46:22.510Z,10.03
2023-03-02T00:48:50.472Z,10.67
2023-03-02T00:51:18.082Z,10.27
2023-03-02T00:53:44.944Z,10.33
2023-03-02T00:56:12.284Z,10.87
2023-03-02T00:58:39.272Z,9.93
2023-03-02T01:01:08.838Z,11.40
2023-03-02T01:03:36.196Z,10.17
2023-03-02T01:06:04.213Z,11.10
2023-03-02T01:08:31.370Z,10.40
2023-03-02T01:11:01.511Z,10.73
2023-03-02T01:13:28.740Z,11.87
2023-03-02T01:16:02.906Z,10.27
2023-03-02T01:18:29.934Z,10.47
2023-03-02T01:21:05.886Z,10.67
2023-03-02T01:23:33.086Z,10.67
2023-03-02T01:26:00.083Z,10.80
2023-03-02T01:28:26.876Z,10.37
2023-03-02T01:30:54.447Z,10.90
2023-03-02T01:33:21.656Z,10.33
2023-03-02T01:35:48.671Z,11.10
2023-03-02T01:38:15.589Z,11.00
2023-03-02T01:40:42.348Z,11.57
2023-03-02T01:43:16.786Z,10.90
2023-03-02T01:45:54.909Z,11.13
2023-03-02T01:48:47.314Z,10.57
2023-03-02T01:51:18.593Z,11.17
2023-03-02T01:53:48.747Z,10.50
2023-03-02T01:56:23.812Z,11.00
2023-03-02T01:58:55.529Z,11.10
2023-03-02T02:01:23.091Z,11.00
2023-03-02T02:03:51.275Z,11.17
2023-03-02T02:06:49.141Z,11.43
2023-03-02T02:09:19.667Z,11.70
2023-03-02T02:11:46.649Z,11.13
2023-03-02T02:14:13.660Z,11.13
2023-03-02T02:16:41.118Z,11.20
2023-03-02T02:19:24.954Z,12.00
2023-03-02T02:21:51.904Z,11.87
2023-03-02T02:24:25.917Z,11.10
2023-03-02T02:26:54.809Z,11.07
2023-03-02T02:29:27.030Z,12.00
2023-03-02T02:31:59.234Z,11.57
2023-03-02T02:34:41.335Z,12.77
2023-03-02T02:37:33.607Z,12.07
2023-03-02T02:40:02.326Z,12.37
2023-03-02T02:42:32.740Z,12.17
2023-03-02T02:45:03.823Z,12.33
2023-03-02T02:47:30.743Z,12.73
2023-03-02T02:49:57.841Z,12.67
2023-03-02T02:52:28.202Z,12.93
2023-03-02T02:54:58.266Z,11.97
2023-03-02T02:57:28.669Z,11.23
2023-03-02T03:00:00.463Z,12.00
2023-03-02T03:02:31.011Z,11.60
2023-03-02T03:05:02.693Z,12.73
2023-03-02T03:07:31.557Z,12.33
2023-03-02T03:10:09.818Z,11.73
2023-03-02T03:12:38.745Z,11.00
2023-03-02T03:15:07.609Z,11.23
2023-03-02T03:17:34.421Z,12.07
2023-03-02T03:20:06.509Z,11.00
2023-03-02T03:22:38.625Z,11.03
2023-03-02T03:25:06.429Z,11.30
2023-03-02T03:27:33.079Z,11.03
2023-03-02T03:30:01.960Z,11.00
2023-03-02T03:32:29.062Z,12.00
2023-03-02T03:34:56.409Z,10.53
2023-03-02T03:37:24.003Z,10.37
2023-03-02T03:39:51.036Z,11.53
2023-03-02T03:42:18.101Z,10.70
2023-03-02T03:44:44.836Z,11.37
2023-03-02T03:47:11.737Z,11.10
2023-03-02T03:49:38.447Z,10.20
2023-03-02T03:52:05.278Z,10.67
2023-03-02T03:54:32.588Z,10.80
2023-03-02T03:56:59.408Z,9.97
2023-03-02T03:59:26.958Z,10.00
2023-03-02T04:01:57.162Z,11.43
2023-03-02T04:04:29.689Z,10.60
2023-03-02T04:06:56.822Z,10.10
2023-03-02T04:09:24.958Z,10.23
2023-03-02T04:11:54.608Z,36.00
2023-03-02T04:14:23.367Z,11.83
2023-03-02T04:16:53.110Z,11.10
2023-03-02T04:19:20.482Z,11.60
2023-03-02T04:21:50.746Z,11.20
2023-03-02T04:24:19.919Z,11.03
2023-03-02T04:26:49.267Z,11.10
2023-03-02T04:29:16.801Z,11.47
2023-03-02T04:31:43.720Z,10.33
2023-03-02T04:34:10.786Z,11.17
2023-03-02T04:36:39.508Z,11.87
2023-03-02T04:39:07.364Z,10.40
2023-03-02T04:41:34.728Z,11.40
2023-03-02T04:44:01.395Z,11.27
2023-03-02T04:46:28.473Z,11.23
2023-03-02T04:48:55.689Z,11.00
2023-03-02T04:51:28.585Z,11.93
2023-03-02T04:54:00.297Z,10.33
2023-03-02T04:56:27.271Z,11.53
2023-03-02T04:58:54.637Z,10.53
2023-03-02T05:01:21.302Z,10.37
2023-03-02T05:03:48.496Z,10.13
2023-03-02T05:06:15.533Z,9.63
2023-03-02T05:08:42.299Z,10.47
2023-03-02T05:11:09.102Z,11.77
2023-03-02T05:13:36.037Z,10.97
2023-03-02T05:16:03.203Z,10.90
2023-03-02T05:18:30.167Z,10.80
2023-03-02T05:20:57.406Z,10.93
2023-03-02T05:23:25.707Z,11.00
2023-03-02T05:25:55.140Z,11.10
2023-03-02T05:28:23.835Z,10.87
2023-03-02T05:30:51.138Z,11.00
2023-03-02T05:33:18.610Z,12.27
2023-03-02T05:35:45.641Z,10.37
2023-03-02T05:38:16.981Z,11.37
2023-03-02T05:40:48.542Z,10.77
2023-03-02T05:43:17.731Z,10.77
2023-03-02T05:45:45.169Z,10.77
2023-03-02T05:48:13.754Z,10.53
2023-03-02T05:50:41.046Z,11.30
2023-03-02T05:53:08.056Z,11.73
2023-03-02T05:55:36.946Z,11.00
2023-03-02T05:58:11.747Z,11.03
2023-03-02T06:00:38.453Z,11.13
2023-03-02T06:03:05.152Z,10.97
2023-03-02T06:05:31.804Z,10.97
2023-03-02T06:07:58.410Z,11.10
2023-03-02T06:10:25.710Z,11.13
2023-03-02T06:12:52.568Z,11.83
2023-03-02T06:15:19.828Z,11.13
2023-03-02T06:17:46.614Z,11.20
2023-03-02T06:20:13.895Z,12.30
2023-03-02T06:22:43.418Z,11.20
2023-03-02T06:25:13.359Z,11.13
2023-03-02T06:27:41.061Z,11.93
2023-03-02T06:30:09.192Z,11.10
2023-03-02T06:32:35.985Z,12.73
2023-03-02T06:35:04.979Z,13.13
2023-03-02T06:37:32.508Z,12.10
2023-03-02T06:39:59.320Z,12.13
2023-03-02T06:42:27.457Z,11.60
2023-03-02T06:44:55.256Z,12.30
2023-03-02T06:47:23.100Z,10.83
2023-03-02T06:49:49.997Z,11.33
2023-03-02T06:52:17.506Z,10.87
2023-03-02T06:54:44.269Z,11.40
2023-03-02T06:57:11.165Z,10.83
2023-03-02T06:59:37.907Z,12.13
2023-03-02T07:02:04.755Z,10.07
2023-03-02T07:04:31.438Z,9.90
2023-03-02T07:06:58.084Z,10.63
2023-03-02T07:09:24.909Z,9.90
2023-03-02T07:11:51.656Z,9.20
2023-03-02T07:14:18.388Z,9.67
2023-03-02T07:16:45.213Z,8.83
2023-03-02T07:19:13.598Z,10.60
2023-03-02T07:21:40.893Z,10.23
2023-03-02T07:24:11.168Z,9.03
2023-03-02T07:26:38.037Z,10.40
2023-03-02T07:29:04.822Z,10.17
2023-03-02T07:31:32.226Z,9.77
2023-03-02T07:33:59.514Z,9.47
2023-03-02T07:36:26.565Z,9.53
2023-03-02T07:38:53.480Z,9.00
2023-03-02T07:41:20.610Z,10.67
2023-03-02T07:43:47.510Z,9.60
2023-03-02T07:46:14.739Z,9.60
2023-03-02T07:48:41.758Z,10.20
2023-03-02T07:51:08.724Z,8.80
2023-03-02T07:53:38.798Z,9.63
2023-03-02T07:56:09.905Z,10.10
2023-03-02T07:58:40.142Z,10.80
2023-03-02T08:01:07.338Z,10.70
2023-03-02T08:03:34.628Z,10.50
2023-03-02T08:06:10.488Z,10.87
2023-03-02T08:08:37.577Z,8.17
2023-03-02T08:11:12.629Z,10.70
2023-03-02T08:13:40.797Z,10.23
2023-03-02T08:16:09.547Z,9.30
2023-03-02T08:18:37.720Z,9.47
2023-03-02T08:21:11.601Z,9.43
2023-03-02T08:23:38.592Z,8.63
2023-03-02T08:26:05.708Z,9.63
2023-03-02T08:28:32.479Z,10.20
2023-03-02T08:31:00.985Z,8.47
2023-03-02T08:33:31.846Z,9.13
2023-03-02T08:36:02.614Z,9.33
2023-03-02T08:38:31.814Z,6.70
2023-03-02T08:40:59.189Z,7.67
2023-03-02T08:43:26.442Z,9.53
2023-03-02T08:45:55.463Z,8.10
2023-03-02T08:48:26.104Z,9.87
2023-03-02T08:51:03.552Z,8.57
2023-03-02T08:53:37.368Z,9.40
2023-03-02T08:56:04.636Z,8.83
2023-03-02T08:58:31.432Z,9.93
2023-03-02T09:00:59.143Z,9.23
2023-03-02T09:03:32.965Z,8.97
2023-03-02T09:05:59.994Z,8.13
2023-03-02T09:08:27.020Z,7.63
2023-03-02T09:10:54.045Z,8.23
2023-03-02T09:13:21.187Z,9.50
2023-03-02T09:15:47.897Z,8.47
2023-03-02T09:18:14.876Z,9.33
2023-03-02T09:20:41.806Z,7.50
2023-03-02T09:23:08.728Z,8.43
2023-03-02T09:25:35.589Z,7.90
2023-03-02T09:28:02.633Z,8.30
2023-03-02T09:30:29.518Z,7.80
2023-03-02T09:32:56.520Z,8.57
2023-03-02T09:35:23.843Z,5.63
2023-03-02T09:37:51.264Z,8.00
2023-03-02T09:40:33.860Z,8.10
2023-03-02T09:43:16.889Z,8.37
2023-03-02T09:45:52.376Z,8.30
2023-03-02T09:48:49.375Z,9.33
2023-03-02T09:51:35.174Z,9.50
2023-03-02T09:54:13.599Z,9.67
2023-03-02T09:56:50.500Z,8.97
2023-03-02T09:59:43.740Z,9.37
2023-03-02T10:02:19.431Z,9.20
2023-03-02T10:04:50.498Z,7.97
2023-03-02T10:07:27.794Z,7.50
2023-03-02T10:10:13.555Z,8.33
2023-03-02T10:13:20.447Z,7.63
2023-03-02T10:16:05.825Z,8.87
2023-03-02T10:18:43.951Z,8.50
2023-03-02T10:21:22.712Z,7.60
2023-03-02T10:24:08.318Z,7.00
2023-03-02T10:26:48.469Z,7.17
2023-03-02T10:29:44.638Z,8.70
2023-03-02T10:32:42.762Z,8.73
2023-03-02T10:35:16.437Z,8.67
2023-03-02T10:37:43.596Z,7.53
2023-03-02T10:40:29.030Z,8.30
2023-03-02T10:42:57.929Z,7.43
2023-03-02T10:45:37.200Z,6.80
2023-03-02T10:48:11.044Z,7.80
2023-03-02T10:50:39.014Z,4.67
2023-03-02T10:53:18.685Z,5.77
2023-03-02T10:55:52.744Z,6.90
2023-03-02T10:58:26.162Z,5.63
2023-03-02T11:01:05.365Z,5.80
2023-03-02T11:03:38.454Z,6.77
2023-03-02T11:06:20.129Z,5.53
2023-03-02T11:08:46.848Z,5.93
2023-03-02T11:11:24.869Z,5.37
2023-03-02T11:13:52.957Z,6.97
2023-03-02T11:16:20.091Z,6.73
2023-03-02T11:18:49.555Z,6.50
2023-03-02T11:21:35.865Z,6.83
2023-03-02T11:24:24.351Z,7.13
2023-03-02T11:26:56.252Z,7.10
2023-03-02T11:29:48.971Z,6.67
2023-03-02T11:32:27.623Z,6.87
2023-03-02T11:35:32.671Z,5.80
2023-03-02T11:38:21.641Z,6.50
2023-03-02T11:41:14.176Z,6.97
2023-03-02T11:43:41.325Z,7.50
2023-03-02T11:46:26.736Z,6.10
2023-03-02T11:49:19.412Z,5.80
2023-03-02T11:51:58.280Z,6.73
2023-03-02T11:54:44.628Z,7.13
2023-03-02T11:57:23.261Z,6.17
2023-03-02T11:59:51.440Z,6.00
2023-03-02T12:02:21.969Z,6.60
2023-03-02T12:04:49.066Z,6.90
2023-03-02T12:07:25.947Z,6.90
2023-03-02T12:10:14.032Z,7.03
2023-03-02T12:12:58.449Z,6.63
2023-03-02T12:15:41.201Z,6.37
2023-03-02T12:18:27.452Z,6.80
2023-03-02T12:21:06.742Z,6.33
2023-03-02T12:23:37.059Z,5.33
2023-03-02T12:26:25.161Z,7.00
2023-03-02T12:29:23.019Z,6.30
2023-03-02T12:31:56.087Z,6.33
2023-03-02T12:34:35.293Z,5.90
2023-03-02T12:37:08.334Z,6.53
2023-03-02T12:40:10.449Z,5.70
2023-03-02T12:43:00.247Z,6.40
2023-03-02T12:45:38.819Z,5.30
2023-03-02T12:48:22.703Z,5.90
2023-03-02T12:50:51.253Z,5.70
2023-03-02T12:53:20.360Z,6.30
2023-03-02T12:55:47.188Z,5.63
2023-03-02T12:58:27.749Z,6.23
2023-03-02T13:00:58.173Z,5.77
2023-03-02T13:03:26.511Z,5.50
2023-03-02T13:06:02.498Z,6.30
2023-03-02T13:08:29.961Z,6.40
2023-03-02T13:11:00.426Z,5.80
2023-03-02T13:13:35.587Z,6.20
2023-03-02T13:16:05.478Z,4.60
2023-03-02T13:18:36.477Z,5.83
2023-03-02T13:21:04.639Z,6.70
2023-03-02T13:23:33.343Z,5.87
2023-03-02T13:26:05.667Z,5.67
2023-03-02T13:28:38.159Z,6.30
2023-03-02T13:31:07.744Z,6.00
2023-03-02T13:33:42.718Z,6.37
2023-03-02T13:36:21.528Z,5.30
2023-03-02T13:38:50.943Z,5.50
2023-03-02T13:41:25.469Z,5.83
2023-03-02T13:43:52.602Z,7.00
2023-03-02T13:46:20.134Z,5.67
2023-03-02T13:49:09.166Z,5.50
2023-03-02T13:51:43.752Z,6.10
2023-03-02T13:54:21.950Z,6.40
2023-03-02T13:56:51.315Z,5.57
2023-03-02T13:59:19.552Z,6.37
2023-03-02T14:01:46.555Z,5.17
2023-03-02T14:04:16.698Z,4.97
2023-03-02T14:06:44.511Z,5.63
2023-03-02T14:09:11.410Z,4.83
2023-03-02T14:11:41.763Z,4.53
2023-03-02T14:14:12.261Z,5.07
2023-03-02T14:16:39.017Z,4.63
2023-03-02T14:19:05.681Z,4.30
2023-03-02T14:21:32.835Z,4.17
2023-03-02T14:23:59.753Z,5.43
2023-03-02T14:26:33.887Z,4.30
2023-03-02T14:29:15.564Z,4.33
2023-03-02T14:31:42.279Z,4.37
2023-03-02T14:34:12.812Z,3.87
2023-03-02T14:36:40.651Z,3.93
2023-03-02T14:39:30.489Z,3.47
2023-03-02T14:41:57.420Z,3.87
2023-03-02T14:44:24.172Z,3.70
2023-03-02T14:46:51.467Z,4.00
2023-03-02T14:49:18.132Z,4.60
2023-03-02T14:51:53.351Z,3.57
2023-03-02T14:54:20.225Z,3.57
2023-03-02T14:56:49.291Z,4.20
2023-03-02T14:59:16.812Z,4.30
2023-03-02T15:01:44.798Z,3.63
2023-03-02T15:04:11.679Z,4.17
2023-03-02T15:06:40.803Z,3.70
2023-03-02T15:09:08.608Z,4.90
2023-03-02T15:11:35.518Z,4.83
2023-03-02T15:14:02.512Z,5.97
2023-03-02T15:16:29.326Z,5.70
2023-03-02T15:18:58.703Z,5.13
2023-03-02T15:21:25.628Z,5.70
2023-03-02T15:23:52.380Z,5.97
2023-03-02T15:26:19.125Z,6.70
2023-03-02T15:28:49.322Z,5.70
2023-03-02T15:31:17.366Z,6.03
2023-03-02T15:33:45.694Z,6.67
2023-03-02T15:36:13.617Z,6.40
2023-03-02T15:38:40.702Z,6.23
2023-03-02T15:44:44.557Z,7.33
2023-03-02T15:47:14.643Z,6.67
2023-03-02T15:49:41.305Z,7.10
2023-03-02T15:52:08.067Z,6.70
2023-03-02T15:54:34.762Z,6.90
2023-03-02T15:57:01.416Z,7.20
2023-03-02T15:59:30.619Z,7.13
2023-03-02T16:02:02.348Z,7.33
2023-03-02T16:04:30.839Z,10.27
2023-03-02T16:06:58.013Z,11.67
2023-03-02T16:09:26.042Z,8.90
2023-03-02T16:11:52.835Z,8.40
2023-03-02T16:14:19.503Z,7.73
2023-03-02T16:16:46.696Z,8.57
2023-03-02T16:19:17.762Z,8.33
2023-03-02T16:21:46.336Z,8.37
2023-03-02T16:24:13.293Z,9.80
2023-03-02T16:26:39.978Z,8.27
2023-03-02T16:29:09.744Z,9.07
2023-03-02T16:31:38.490Z,9.90
2023-03-02T16:34:08.992Z,9.67
2023-03-02T16:36:45.128Z,9.40
2023-03-02T16:39:15.291Z,8.80
2023-03-02T16:41:47.170Z,8.93
2023-03-02T16:44:14.768Z,9.47
2023-03-02T16:46:43.665Z,9.00
2023-03-02T16:49:12.041Z,9.17
2023-03-02T16:51:39.200Z,9.83
2023-03-02T16:54:06.370Z,9.13
2023-03-02T16:56:33.491Z,9.40
2023-03-02T16:59:00.468Z,9.13
2023-03-02T17:01:28.364Z,8.97
2023-03-02T17:03:55.276Z,8.97
2023-03-02T17:06:24.340Z,10.17
2023-03-02T17:08:51.553Z,8.40
2023-03-02T17:11:20.185Z,10.10
2023-03-02T17:13:47.331Z,9.77
2023-03-02T17:16:14.423Z,10.20
2023-03-02T17:18:41.610Z,10.50
2023-03-02T17:21:08.867Z,11.47
2023-03-02T17:23:37.158Z,11.03
2023-03-02T17:26:04.505Z,12.00
2023-03-02T17:28:31.678Z,11.10
2023-03-02T17:31:00.423Z,12.23
2023-03-02T17:33:27.929Z,12.50
2023-03-02T17:35:54.981Z,12.23
2023-03-02T17:38:22.043Z,11.37
2023-03-02T17:40:48.870Z,13.60
2023-03-02T17:43:16.101Z,13.27
2023-03-02T17:46:28.449Z,12.63
2023-03-02T17:48:58.159Z,13.73
2023-03-02T17:51:31.103Z,14.00
2023-03-02T17:53:58.132Z,13.97
2023-03-02T17:56:27.554Z,13.80
2023-03-02T17:58:57.329Z,14.23
2023-03-02T18:01:29.256Z,15.53
2023-03-02T18:03:56.463Z,14.20
2023-03-02T18:06:24.249Z,15.23
2023-03-02T18:08:52.317Z,15.07
2023-03-02T18:11:21.830Z,13.47
2023-03-02T18:13:49.576Z,14.70
2023-03-02T18:16:16.581Z,13.90
2023-03-02T18:18:43.785Z,14.90
2023-03-02T18:21:11.047Z,13.73
2023-03-02T18:23:42.289Z,15.23
2023-03-02T18:26:09.511Z,14.60
2023-03-02T18:28:37.096Z,14.50
2023-03-02T18:31:04.476Z,13.97
2023-03-02T18:33:32.007Z,14.77
2023-03-02T18:36:00.900Z,14.13
2023-03-02T18:38:31.226Z,10.80
2023-03-02T18:41:01.042Z,14.20
2023-03-02T18:43:28.901Z,13.80
2023-03-02T18:45:57.991Z,13.53
2023-03-02T18:48:25.635Z,14.30
2023-03-02T18:50:55.984Z,13.40
2023-03-02T18:53:23.239Z,12.17
2023-03-02T18:55:52.958Z,12.20
2023-03-02T18:58:25.429Z,12.27
2023-03-02T19:00:54.600Z,13.07
2023-03-02T19:03:22.697Z,12.50
2023-03-02T19:05:50.082Z,13.93
2023-03-02T19:08:23.857Z,13.17
2023-03-02T19:10:53.164Z,12.77
2023-03-02T19:13:21.332Z,13.07
2023-03-02T19:15:48.800Z,14.10
2023-03-02T19:18:20.549Z,13.27
2023-03-02T19:20:49.134Z,15.30
2023-03-02T19:23:17.496Z,14.47
2023-03-02T19:25:45.703Z,14.20
2023-03-02T19:28:13.248Z,15.00
2023-03-02T19:30:41.041Z,15.83
2023-03-02T19:33:09.584Z,15.27
2023-03-02T19:35:40.483Z,15.40
2023-03-02T19:38:09.415Z,15.43
2023-03-02T19:40:37.499Z,14.23
2023-03-02T19:43:05.771Z,14.60
2023-03-02T19:45:38.879Z,15.00
2023-03-02T19:48:06.726Z,13.60
2023-03-02T19:50:34.181Z,12.67
2023-03-02T19:53:01.437Z,12.97
2023-03-02T19:55:28.798Z,12.43
2023-03-02T19:58:00.024Z,12.27
2023-03-02T20:00:30.791Z,13.17
2023-03-02T20:02:58.515Z,12.93
2023-03-02T20:05:27.632Z,13.07
2023-03-02T20:07:55.500Z,13.77
2023-03-02T20:10:37.169Z,13.63
2023-03-02T20:13:05.750Z,13.03
2023-03-02T20:15:35.011Z,13.83
2023-03-02T20:18:02.841Z,14.17
2023-03-02T20:20:31.740Z,14.00
2023-03-02T20:23:03.083Z,16.10
2023-03-02T20:25:30.944Z,15.37
2023-03-02T20:27:59.016Z,12.37
2023-03-02T20:30:37.658Z,13.60
2023-03-02T20:33:07.352Z,13.63
2023-03-02T20:35:40.179Z,13.60
2023-03-02T20:38:19.489Z,13.87
2023-03-02T20:40:46.930Z,13.13
2023-03-02T20:43:14.959Z,13.27
2023-03-02T20:45:42.460Z,15.30
2023-03-02T20:48:12.620Z,14.73
2023-03-02T20:50:41.362Z,15.83
2023-03-02T20:53:08.830Z,15.90
2023-03-02T20:55:36.129Z,15.60
2023-03-02T20:58:12.985Z,14.50
2023-03-02T21:00:46.348Z,15.17
2023-03-02T21:03:13.512Z,15.37
2023-03-02T21:05:41.277Z,15.23
2023-03-02T21:08:13.976Z,15.53
2023-03-02T21:10:45.401Z,16.27
2023-03-02T21:13:13.664Z,14.93
2023-03-02T21:15:41.452Z,16.37
2023-03-02T21:18:11.554Z,15.70
2023-03-02T21:20:40.134Z,16.27
2023-03-02T21:23:07.707Z,16.10
2023-03-02T21:25:35.061Z,15.83
2023-03-02T21:28:02.446Z,16.50
2023-03-02T21:30:34.260Z,14.87
2023-03-02T21:33:02.329Z,15.90
2023-03-02T21:35:30.205Z,16.07
2023-03-02T21:38:07.084Z,16.23
2023-03-02T21:40:38.042Z,17.37
2023-03-02T21:43:06.610Z,17.47
2023-03-02T21:45:34.402Z,17.30
2023-03-02T21:48:01.835Z,17.57
2023-03-02T21:50:32.460Z,18.00
2023-03-02T21:53:02.376Z,18.97
2023-03-02T21:55:31.244Z,18.27
2023-03-02T21:57:59.248Z,19.50
2023-03-02T22:00:38.879Z,20.67
2023-03-02T22:03:06.646Z,20.87
2023-03-02T22:05:34.612Z,19.77
2023-03-02T22:08:02.286Z,21.33
2023-03-02T22:10:38.962Z,20.23
2023-03-02T22:13:27.911Z,19.63
2023-03-02T22:16:16.152Z,19.83
2023-03-02T22:18:48.323Z,20.80
2023-03-02T22:21:38.317Z,20.30
2023-03-02T22:24:18.154Z,20.23
2023-03-02T22:27:08.971Z,20.43
2023-03-02T22:29:45.047Z,21.00
2023-03-02T22:32:19.441Z,21.00
2023-03-02T22:34:48.946Z,22.33
2023-03-02T22:37:22.966Z,21.50
2023-03-02T22:39:53.800Z,22.57
2023-03-02T22:42:34.252Z,21.80
2023-03-02T22:45:15.241Z,22.83
2023-03-02T22:47:44.346Z,22.50
2023-03-02T22:50:29.633Z,23.77
2023-03-02T22:52:58.910Z,21.87
2023-03-02T22:55:37.121Z,22.90
2023-03-02T22:58:30.833Z,23.03
2023-03-02T23:01:02.262Z,23.13
2023-03-02T23:03:41.518Z,23.50
2023-03-02T23:06:27.515Z,22.97
2023-03-02T23:08:57.593Z,22.67
2023-03-02T23:11:25.336Z,23.00
2023-03-02T23:13:53.879Z,23.30
2023-03-02T23:16:29.396Z,24.77
2023-03-02T23:18:59.464Z,22.13
2023-03-02T23:21:46.573Z,21.43
2023-03-02T23:24:13.774Z,23.30
2023-03-02T23:26:41.134Z,22.07
2023-03-02T23:29:08.281Z,22.90
2023-03-02T23:31:35.401Z,24.20
2023-03-02T23:34:02.604Z,23.27
2023-03-02T23:36:31.357Z,25.00
2023-03-02T23:38:59.181Z,23.93
2023-03-02T23:41:27.089Z,24.57
2023-03-02T23:43:54.251Z,24.57
2023-03-02T23:46:21.841Z,24.57
2023-03-02T23:48:49.009Z,24.80
2023-03-02T23:51:16.421Z,23.60
2023-03-02T23:53:44.332Z,23.53
2023-03-02T23:56:12.004Z,24.57
2023-03-02T23:58:39.101Z,23.70
